Time;durP1;ratioP1;P1;durP2;ratioP2;P2;SDS_P1;SDS_P2;PMS_P1;PMS_P2;Temp;Humidity;BMP_temperature;BMP_pressure;BME280_temperature;BME280_humidity;BME280_pressure;Samples;Min_cycle;Max_cycle;Signal;HPM_P1;HPM_P2
2022/11/05 00:10:04;;;;;;;23.50;15.93;;;8.70;99.90;;;;;;10362506;28;20244;-84
2022/11/05 00:25:12;;;;;;;22.67;14.07;;;8.70;99.90;;;;;;10355671;28;20214;-86
2022/11/05 00:26:46;;;;;;;23.73;14.90;;;8.70;99.90;;;;;;10356082;28;20211;-87
2022/11/05 00:32:07;;;;;;;24.20;14.47;;;8.60;99.90;;;;;;10328082;28;20599;-87
2022/11/05 00:37:29;;;;;;;19.07;13.17;;;8.60;99.90;;;;;;10341981;28;20200;-88
2022/11/05 00:54:11;;;;;;;21.17;13.87;;;8.60;99.90;;;;;;10329047;28;20204;-88
2022/11/05 00:59:32;;;;;;;19.33;13.30;;;8.50;99.90;;;;;;10315035;28;20199;-86
2022/11/05 01:04:53;;;;;;;17.03;12.70;;;8.50;99.90;;;;;;10308967;28;20199;-85
2022/11/05 01:10:15;;;;;;;16.37;12.70;;;8.50;99.90;;;;;;10301524;28;20250;-86
2022/11/05 01:15:37;;;;;;;18.80;12.70;;;8.50;99.90;;;;;;10337867;28;20201;-87
2022/11/05 01:20:58;;;;;;;14.80;11.53;;;8.60;99.90;;;;;;10340805;28;20198;-86
2022/11/05 01:26:19;;;;;;;17.57;12.30;;;8.60;99.90;;;;;;10340543;28;20190;-85
2022/11/05 01:31:40;;;;;;;16.07;11.90;;;8.60;99.90;;;;;;10313695;28;20223;-86
2022/11/05 01:37:02;;;;;;;15.37;11.63;;;8.60;99.90;;;;;;10308364;28;20425;-86
2022/11/05 01:42:25;;;;;;;14.00;10.77;;;8.60;99.90;;;;;;10370256;28;20260;-87
2022/11/05 01:47:52;;;;;;;16.27;11.40;;;8.60;99.90;;;;;;10362256;28;20202;-85
2022/11/05 01:53:37;;;;;;;16.53;11.60;;;8.60;99.90;;;;;;10348091;28;20246;-85
2022/11/05 01:59:08;;;;;;;12.73;10.50;;;8.60;99.90;;;;;;10343828;28;20246;-86
2022/11/05 02:04:40;;;;;;;15.83;10.47;;;8.60;99.90;;;;;;10362969;28;20199;-85
2022/11/05 02:10:06;;;;;;;13.33;10.60;;;8.60;99.90;;;;;;10347130;28;20255;-85
2022/11/05 02:15:59;;;;;;;14.03;10.07;;;8.50;99.90;;;;;;10333529;28;20195;-85
2022/11/05 02:21:48;;;;;;;15.47;10.53;;;8.50;99.90;;;;;;10349634;28;20545;-85
2022/11/05 02:27:38;;;;;;;13.87;10.77;;;8.60;99.90;;;;;;10346305;28;20512;-85
2022/11/05 02:33:08;;;;;;;10.73;8.87;;;8.50;99.90;;;;;;10325045;28;20242;-85
2022/11/05 02:38:43;;;;;;;12.37;10.00;;;8.50;99.90;;;;;;10319538;28;20209;-85
2022/11/05 02:44:10;;;;;;;13.50;9.87;;;8.60;99.90;;;;;;10319018;28;20216;-86
2022/11/05 02:49:50;;;;;;;13.00;9.90;;;8.50;99.90;;;;;;10305989;28;20233;-84
2022/11/05 02:55:15;;;;;;;11.13;9.93;;;8.50;99.90;;;;;;10319573;28;20199;-85
2022/11/05 03:00:53;;;;;;;14.07;9.43;;;8.50;99.90;;;;;;10335808;28;20207;-85
2022/11/05 03:06:24;;;;;;;10.67;9.10;;;8.50;99.90;;;;;;10314253;28;20204;-85
2022/11/05 03:12:00;;;;;;;13.30;10.23;;;8.60;99.90;;;;;;10325511;28;20607;-85
2022/11/05 03:17:44;;;;;;;11.67;9.77;;;8.50;99.90;;;;;;10345370;28;20465;-85
2022/11/05 03:23:05;;;;;;;14.53;11.63;;;8.60;99.90;;;;;;10358417;28;20211;-85
2022/11/05 03:28:29;;;;;;;15.47;11.53;;;8.60;99.90;;;;;;10344337;28;20206;-85
2022/11/05 03:33:52;;;;;;;12.07;10.77;;;8.60;99.90;;;;;;10358572;28;20203;-85
2022/11/05 03:39:20;;;;;;;16.27;11.43;;;8.60;99.90;;;;;;10349473;28;20192;-85
2022/11/05 03:44:49;;;;;;;14.97;12.03;;;8.60;99.90;;;;;;10317793;28;20520;-85
2022/11/05 03:50:22;;;;;;;15.33;10.53;;;8.50;99.90;;;;;;10303513;28;20231;-85
2022/11/05 03:55:53;;;;;;;15.10;11.53;;;8.50;99.90;;;;;;10317033;28;20509;-85
2022/11/05 04:01:15;;;;;;;12.40;10.33;;;8.50;99.90;;;;;;10338921;28;20190;-85
2022/11/05 04:17:58;;;;;;;12.13;9.60;;;8.50;99.90;;;;;;10356371;28;20199;-85
2022/11/05 04:34:39;;;;;;;10.43;9.33;;;8.60;99.90;;;;;;10301866;28;20593;-85
2022/11/05 04:40:00;;;;;;;10.57;9.47;;;8.60;99.90;;;;;;10317086;28;20257;-85
2022/11/05 04:45:22;;;;;;;12.03;9.67;;;8.60;99.90;;;;;;10355880;28;20218;-85
2022/11/05 04:50:44;;;;;;;9.93;8.80;;;8.60;99.90;;;;;;10348355;28;20263;-85
2022/11/05 04:56:18;;;;;;;13.67;10.07;;;8.60;99.90;;;;;;10361304;28;20199;-85
2022/11/05 05:01:39;;;;;;;11.53;9.83;;;8.70;99.90;;;;;;10335281;28;20192;-85
2022/11/05 05:07:01;;;;;;;14.20;9.97;;;8.70;99.90;;;;;;10344605;28;20191;-85
2022/11/05 05:12:22;;;;;;;13.63;12.17;;;8.70;99.90;;;;;;10356516;28;20265;-84
2022/11/05 05:17:48;;;;;;;13.07;10.73;;;8.70;99.90;;;;;;10315760;28;20276;-84
2022/11/05 05:23:09;;;;;;;12.23;10.40;;;8.70;99.90;;;;;;10339413;28;20210;-83
2022/11/05 05:28:31;;;;;;;11.40;9.83;;;8.80;99.90;;;;;;10337966;28;20231;-83
2022/11/05 05:33:53;;;;;;;13.83;10.27;;;8.80;99.90;;;;;;10341655;28;20205;-85
2022/11/05 05:39:14;;;;;;;11.77;9.57;;;8.70;99.90;;;;;;10350787;28;20196;-85
2022/11/05 05:44:36;;;;;;;11.13;9.23;;;8.80;99.90;;;;;;10315246;28;20202;-83
2022/11/05 05:49:57;;;;;;;16.20;10.70;;;8.80;99.90;;;;;;10314535;28;20305;-84
2022/11/05 05:55:18;;;;;;;13.73;9.33;;;8.80;99.90;;;;;;10287529;28;20212;-85
2022/11/05 06:00:39;;;;;;;13.07;9.37;;;8.80;99.90;;;;;;10349915;28;20198;-85
2022/11/05 06:06:12;;;;;;;11.03;8.70;;;8.80;99.90;;;;;;10300801;28;20196;-86
2022/11/05 06:11:33;;;;;;;12.43;9.23;;;8.80;99.90;;;;;;10332836;28;20569;-85
2022/11/05 06:16:54;;;;;;;32.57;20.77;;;8.80;99.90;;;;;;10343769;28;20223;-85
2022/11/05 06:22:15;;;;;;;60.77;29.87;;;8.90;99.90;;;;;;10334552;28;20208;-85
2022/11/05 06:27:37;;;;;;;44.07;21.83;;;8.90;99.90;;;;;;10373765;28;20200;-86
2022/11/05 06:33:02;;;;;;;33.37;20.07;;;8.80;99.90;;;;;;10346961;28;20235;-85
2022/11/05 06:38:24;;;;;;;28.57;17.23;;;8.80;99.90;;;;;;10344555;28;20558;-86
2022/11/05 06:43:46;;;;;;;25.37;14.33;;;8.80;99.90;;;;;;10306532;28;20213;-83
2022/11/05 06:49:07;;;;;;;27.17;13.97;;;8.80;99.90;;;;;;10321156;28;20208;-85
2022/11/05 06:54:28;;;;;;;21.20;14.43;;;8.80;99.90;;;;;;10324324;28;20268;-84
2022/11/05 06:59:49;;;;;;;19.80;14.97;;;8.80;99.90;;;;;;10349098;28;20199;-84
2022/11/05 07:05:13;;;;;;;23.30;14.70;;;8.80;99.90;;;;;;10345602;28;20558;-86
2022/11/05 07:10:34;;;;;;;50.53;27.80;;;8.90;99.90;;;;;;10350806;28;20235;-85
2022/11/05 07:15:55;;;;;;;35.07;21.67;;;8.90;99.90;;;;;;10365518;28;20207;-83
2022/11/05 07:21:18;;;;;;;21.37;14.57;;;8.90;99.90;;;;;;10345223;28;20249;-86
2022/11/05 07:26:39;;;;;;;17.50;13.13;;;8.90;99.90;;;;;;10344978;28;20234;-85
2022/11/05 07:32:00;;;;;;;21.40;14.80;;;8.90;99.90;;;;;;10344505;28;20228;-85
2022/11/05 07:37:21;;;;;;;26.00;16.60;;;8.90;99.90;;;;;;10386996;28;20200;-85
2022/11/05 07:42:44;;;;;;;24.10;14.87;;;9.00;99.90;;;;;;10336355;28;20232;-85
2022/11/05 07:48:06;;;;;;;20.27;13.77;;;8.90;99.90;;;;;;10329056;28;20252;-85
2022/11/05 07:53:27;;;;;;;16.70;12.10;;;9.00;99.90;;;;;;10317364;28;20247;-86
2022/11/05 07:58:49;;;;;;;14.90;10.47;;;9.00;99.90;;;;;;10355236;28;20199;-85
2022/11/05 08:04:10;;;;;;;21.10;11.13;;;9.10;99.90;;;;;;10336347;28;20191;-86
2022/11/05 08:09:32;;;;;;;14.30;11.07;;;9.10;99.90;;;;;;10356834;28;20257;-85
2022/11/05 08:14:53;;;;;;;10.60;8.40;;;9.20;99.90;;;;;;10342439;28;20247;-86
2022/11/05 08:20:15;;;;;;;9.83;7.70;;;9.20;99.90;;;;;;10356227;28;20206;-86
2022/11/05 08:25:36;;;;;;;10.47;6.70;;;9.30;99.90;;;;;;10342559;28;20206;-85
2022/11/05 08:30:57;;;;;;;8.20;5.70;;;9.20;99.90;;;;;;10329675;28;20225;-86
2022/11/05 08:36:18;;;;;;;10.00;5.43;;;9.30;99.90;;;;;;10351158;28;20249;-84
2022/11/05 08:41:40;;;;;;;5.60;4.07;;;9.30;99.90;;;;;;10368369;28;20200;-85
2022/11/05 08:47:01;;;;;;;6.50;3.70;;;9.30;99.90;;;;;;10352633;28;20457;-86
2022/11/05 08:52:24;;;;;;;5.70;3.70;;;9.40;99.90;;;;;;10341779;28;20226;-86
2022/11/05 08:57:45;;;;;;;8.67;3.97;;;9.40;99.90;;;;;;10340356;28;20196;-86
2022/11/05 09:03:07;;;;;;;5.43;3.43;;;9.40;99.90;;;;;;10352113;28;20198;-85
2022/11/05 09:08:29;;;;;;;8.30;5.03;;;9.40;99.90;;;;;;10333594;28;20239;-82
2022/11/05 09:13:50;;;;;;;13.10;3.60;;;9.50;99.90;;;;;;10362562;28;20258;-86
2022/11/05 09:19:11;;;;;;;4.50;2.80;;;9.60;99.90;;;;;;10301299;28;20223;-86
2022/11/05 09:24:32;;;;;;;4.13;2.60;;;9.70;99.90;;;;;;10311722;28;20231;-85
2022/11/05 09:29:53;;;;;;;11.53;5.30;;;9.80;99.90;;;;;;10345240;28;20223;-85
2022/11/05 09:35:15;;;;;;;22.03;10.13;;;9.90;99.90;;;;;;10340828;28;20211;-85
2022/11/05 09:40:59;;;;;;;26.13;13.00;;;10.00;99.90;;;;;;10340839;28;20203;-83
2022/11/05 09:46:22;;;;;;;9.03;4.37;;;10.00;99.90;;;;;;10341219;28;20208;-86
2022/11/05 09:51:43;;;;;;;11.63;6.60;;;10.00;99.90;;;;;;10345626;28;20319;-86
2022/11/05 09:57:10;;;;;;;12.47;5.03;;;10.10;99.90;;;;;;10334288;28;20204;-86
2022/11/05 10:02:54;;;;;;;3.90;2.80;;;10.30;99.90;;;;;;10338050;28;20495;-86
2022/11/05 10:08:33;;;;;;;3.20;2.07;;;10.50;99.90;;;;;;10336320;28;20235;-87
2022/11/05 10:14:12;;;;;;;4.63;2.43;;;10.60;99.90;;;;;;10327357;28;20228;-86
2022/11/05 10:19:42;;;;;;;8.00;3.90;;;10.60;99.90;;;;;;10375659;28;20200;-85
2022/11/05 10:25:19;;;;;;;5.87;2.40;;;10.70;99.90;;;;;;10323620;28;20214;-86
2022/11/05 10:30:41;;;;;;;4.87;2.33;;;10.70;99.90;;;;;;10342682;28;20306;-86
2022/11/05 10:36:05;;;;;;;4.33;2.23;;;10.70;99.90;;;;;;10347119;28;20200;-87
2022/11/05 10:41:51;;;;;;;3.83;2.03;;;10.70;99.90;;;;;;10361261;28;20521;-86
2022/11/05 10:47:31;;;;;;;4.00;1.77;;;10.70;99.90;;;;;;10334250;28;20207;-86
2022/11/05 10:52:55;;;;;;;11.37;2.17;;;10.70;99.90;;;;;;10346538;28;20236;-86
2022/11/05 10:58:16;;;;;;;12.30;2.40;;;10.70;99.90;;;;;;10332708;28;20201;-86
2022/11/05 11:03:45;;;;;;;5.97;1.63;;;10.90;99.90;;;;;;10339225;28;20200;-85
2022/11/05 11:09:16;;;;;;;4.50;1.90;;;11.20;99.90;;;;;;10340671;28;20239;-86
2022/11/05 11:14:39;;;;;;;4.17;1.70;;;11.50;99.90;;;;;;10328684;28;20234;-87
2022/11/05 11:20:30;;;;;;;5.07;1.90;;;11.70;99.90;;;;;;10360739;28;20223;-86
2022/11/05 11:26:00;;;;;;;7.20;1.90;;;11.70;99.90;;;;;;10348550;28;20230;-86
2022/11/05 11:31:24;;;;;;;6.63;1.80;;;11.50;99.90;;;;;;10291879;28;20297;-86
2022/11/05 11:36:48;;;;;;;4.33;1.50;;;11.20;99.90;;;;;;10331687;28;20281;-86
2022/11/05 11:42:42;;;;;;;7.73;1.73;;;11.10;99.90;;;;;;10323643;28;20264;-85
2022/11/05 11:48:06;;;;;;;5.33;1.57;;;10.80;99.90;;;;;;10355307;28;20507;-86
2022/11/05 11:53:32;;;;;;;5.73;1.73;;;10.60;99.90;;;;;;10358003;28;20435;-87
2022/11/05 11:58:55;;;;;;;5.63;1.67;;;10.50;99.90;;;;;;10385584;28;20289;-85
2022/11/05 12:04:52;;;;;;;4.80;1.33;;;10.50;99.90;;;;;;10343456;28;20525;-86
2022/11/05 12:10:13;;;;;;;4.30;1.60;;;10.50;99.90;;;;;;10329588;28;20245;-87
2022/11/05 12:16:03;;;;;;;4.00;1.40;;;10.60;99.90;;;;;;10322515;28;20205;-86
2022/11/05 12:21:42;;;;;;;6.50;2.13;;;10.70;99.90;;;;;;10315688;28;20196;-85
2022/11/05 12:27:51;;;;;;;8.87;2.60;;;10.70;99.90;;;;;;10345925;28;20205;-86
2022/11/05 12:33:34;;;;;;;6.97;2.07;;;10.70;99.90;;;;;;10342784;28;20237;-87
2022/11/05 12:39:12;;;;;;;8.13;2.63;;;10.60;99.90;;;;;;10362019;28;20200;-86
2022/11/05 12:44:58;;;;;;;7.83;2.23;;;10.60;99.90;;;;;;10319065;28;20216;-86
2022/11/05 12:50:25;;;;;;;8.87;2.93;;;10.60;99.90;;;;;;10316437;28;20227;-86
2022/11/05 12:55:48;;;;;;;9.17;3.20;;;10.60;99.90;;;;;;10304258;28;20268;-87
2022/11/05 13:01:44;;;;;;;11.43;2.63;;;10.70;99.90;;;;;;10330604;28;20213;-85
2022/11/05 13:07:10;;;;;;;7.03;2.47;;;10.60;99.90;;;;;;10337509;28;20213;-86
2022/11/05 13:12:37;;;;;;;8.63;2.87;;;10.60;99.90;;;;;;10323801;28;20294;-86
2022/11/05 13:18:04;;;;;;;13.27;4.00;;;10.60;99.90;;;;;;10336995;28;20272;-86
2022/11/05 13:23:47;;;;;;;8.93;2.77;;;10.60;99.90;;;;;;10334358;28;20247;-86
2022/11/05 13:29:33;;;;;;;10.47;2.60;;;10.60;99.90;;;;;;10383911;28;20287;-85
2022/11/05 13:34:55;;;;;;;8.27;2.43;;;10.60;99.90;;;;;;10330897;28;20250;-86
2022/11/05 13:40:23;;;;;;;10.20;2.70;;;10.60;99.90;;;;;;10347991;28;20231;-86
2022/11/05 13:45:56;;;;;;;9.17;2.80;;;10.60;99.90;;;;;;10362298;28;20247;-86
2022/11/05 13:51:20;;;;;;;13.43;3.77;;;10.60;99.90;;;;;;10348555;28;20240;-86
2022/11/05 13:56:50;;;;;;;11.07;3.10;;;10.70;99.90;;;;;;10351822;28;20223;-83
2022/11/05 14:02:33;;;;;;;5.37;2.33;;;10.70;99.90;;;;;;10350014;28;20209;-82
2022/11/05 14:07:56;;;;;;;9.10;3.17;;;10.80;99.90;;;;;;10378958;28;20205;-87
2022/11/05 14:13:30;;;;;;;8.90;3.13;;;10.80;99.90;;;;;;10336950;28;20526;-88
2022/11/05 14:19:02;;;;;;;9.53;2.97;;;10.80;99.90;;;;;;10365272;28;20205;-87
2022/11/05 14:24:43;;;;;;;14.80;4.37;;;10.80;99.90;;;;;;10318080;28;20202;-89
2022/11/05 14:30:42;;;;;;;15.63;5.13;;;10.80;99.90;;;;;;10311819;28;20235;-88
2022/11/05 14:36:32;;;;;;;16.97;4.40;;;10.80;99.90;;;;;;10349403;28;20475;-87
2022/11/05 14:42:10;;;;;;;12.20;5.43;;;10.60;99.90;;;;;;10320311;28;20562;-86
2022/11/05 14:47:39;;;;;;;16.37;7.93;;;10.40;99.90;;;;;;10308891;28;20189;-88
2022/11/05 14:53:25;;;;;;;20.83;9.03;;;10.30;99.90;;;;;;10306863;28;20223;-88
2022/11/05 14:58:46;;;;;;;15.47;6.87;;;10.30;99.90;;;;;;10308148;28;20307;-89
2022/11/05 15:04:24;;;;;;;17.67;6.87;;;10.20;99.90;;;;;;10319920;28;20201;-88
2022/11/05 15:09:52;;;;;;;12.30;5.70;;;10.10;99.90;;;;;;10321402;28;20276;-89
2022/11/05 15:15:30;;;;;;;12.80;4.47;;;10.10;99.90;;;;;;10328065;28;20527;-87
2022/11/05 15:20:55;;;;;;;10.10;4.87;;;9.90;99.90;;;;;;10361281;28;20398;-86
2022/11/05 15:26:35;;;;;;;12.37;5.03;;;9.90;99.90;;;;;;10362113;28;20189;-83
2022/11/05 15:31:58;;;;;;;13.37;4.97;;;9.80;99.90;;;;;;10324834;28;20233;-85
2022/11/05 15:37:22;;;;;;;10.63;3.93;;;9.70;99.90;;;;;;10304300;28;20211;-88
2022/11/05 15:42:43;;;;;;;9.83;3.60;;;9.70;99.90;;;;;;10328419;28;20196;-86
2022/11/05 15:48:17;;;;;;;9.67;4.50;;;9.60;99.90;;;;;;10306559;28;20372;-87
2022/11/05 15:53:45;;;;;;;10.43;3.97;;;9.60;99.90;;;;;;10319913;28;20247;-87
2022/11/05 15:59:27;;;;;;;7.87;2.93;;;9.60;99.90;;;;;;10319794;28;20187;-86
2022/11/05 16:04:50;;;;;;;9.57;2.60;;;9.50;99.90;;;;;;10298826;28;20359;-85
2022/11/05 16:10:24;;;;;;;8.43;2.53;;;9.50;99.90;;;;;;10318418;28;20244;-87
2022/11/05 16:15:57;;;;;;;6.23;2.33;;;9.50;99.90;;;;;;10357699;28;20534;-86
2022/11/05 16:21:21;;;;;;;8.87;2.20;;;9.40;99.90;;;;;;10325645;28;20193;-87
2022/11/05 16:26:44;;;;;;;11.90;5.80;;;9.30;99.90;;;;;;10357990;28;20200;-86
2022/11/05 16:32:23;;;;;;;13.23;6.90;;;9.30;99.90;;;;;;10302138;28;20237;-87
2022/11/05 16:37:49;;;;;;;12.30;4.30;;;9.20;99.90;;;;;;10303617;28;20283;-87
2022/11/05 16:43:22;;;;;;;8.90;4.10;;;9.10;99.90;;;;;;10355694;28;20221;-88
2022/11/05 16:48:43;;;;;;;9.13;4.47;;;9.10;99.90;;;;;;10342055;28;20210;-88
2022/11/05 16:54:05;;;;;;;7.23;3.30;;;9.00;99.90;;;;;;10341693;28;20231;-87
2022/11/05 16:59:27;;;;;;;8.10;3.33;;;8.90;99.90;;;;;;10341235;28;20200;-86
2022/11/05 17:04:48;;;;;;;8.47;2.43;;;8.90;99.90;;;;;;10341328;28;20200;-88
2022/11/05 17:10:10;;;;;;;8.53;2.67;;;8.80;99.90;;;;;;10340782;28;20466;-87
2022/11/05 17:15:36;;;;;;;11.50;3.70;;;8.70;99.90;;;;;;10340996;28;20213;-86
2022/11/05 17:20:57;;;;;;;7.53;2.97;;;8.70;99.90;;;;;;10355516;28;20197;-87
2022/11/05 17:26:18;;;;;;;8.47;2.77;;;8.60;99.90;;;;;;10355289;28;20206;-85
2022/11/05 17:31:43;;;;;;;9.43;3.03;;;8.50;99.90;;;;;;10342198;28;20536;-85
2022/11/05 17:37:04;;;;;;;8.27;3.63;;;8.50;99.90;;;;;;10355555;28;20373;-87
2022/11/05 17:42:26;;;;;;;9.77;3.83;;;8.50;99.90;;;;;;10351787;28;20202;-87
2022/11/05 17:47:47;;;;;;;9.60;3.17;;;8.40;99.90;;;;;;10342553;28;20202;-88
2022/11/05 17:53:09;;;;;;;9.43;4.43;;;8.30;99.90;;;;;;10355367;28;20251;-87
2022/11/05 17:58:32;;;;;;;10.03;3.63;;;8.20;99.90;;;;;;10341461;28;20390;-85
2022/11/05 18:03:53;;;;;;;10.37;4.57;;;8.10;99.90;;;;;;10356695;28;20393;-86
2022/11/05 18:09:14;;;;;;;9.87;3.30;;;8.10;99.90;;;;;;10341946;28;20265;-87
2022/11/05 18:14:35;;;;;;;16.40;4.20;;;8.10;99.90;;;;;;10367372;28;20226;-82
2022/11/05 18:19:57;;;;;;;14.67;4.40;;;8.10;99.90;;;;;;10354966;28;20413;-85
2022/11/05 18:25:18;;;;;;;10.20;3.57;;;8.00;99.90;;;;;;10343149;28;20193;-87
2022/11/05 18:30:40;;;;;;;10.23;4.67;;;8.00;99.90;;;;;;10350070;28;20243;-86
2022/11/05 18:36:01;;;;;;;20.97;10.47;;;7.90;99.90;;;;;;10348642;28;20249;-88
2022/11/05 18:41:23;;;;;;;30.80;13.97;;;7.80;99.90;;;;;;10357036;28;20196;-87
2022/11/05 18:46:45;;;;;;;43.33;18.70;;;7.70;99.90;;;;;;10351650;28;20201;-86
2022/11/05 18:52:21;;;;;;;52.03;22.13;;;7.50;99.90;;;;;;10317047;28;20449;-85
2022/11/05 18:57:42;;;;;;;34.97;15.67;;;7.50;99.90;;;;;;10294138;28;20195;-86
2022/11/05 19:03:05;;;;;;;33.07;13.10;;;7.50;99.90;;;;;;10320972;28;20195;-88
2022/11/05 19:08:31;;;;;;;47.40;22.93;;;7.40;99.90;;;;;;10338202;28;20227;-88
2022/11/05 19:13:52;;;;;;;47.10;23.00;;;7.30;99.90;;;;;;10310503;28;20224;-85
2022/11/05 19:19:13;;;;;;;45.63;20.83;;;7.30;99.90;;;;;;10358535;28;20212;-86
2022/11/05 19:24:34;;;;;;;34.43;16.63;;;7.20;99.90;;;;;;10358076;28;20200;-86
2022/11/05 19:29:56;;;;;;;30.50;13.97;;;7.20;99.90;;;;;;10361314;28;20209;-85
2022/11/05 19:35:17;;;;;;;21.17;10.43;;;7.10;99.90;;;;;;10347998;28;20283;-86
2022/11/05 19:40:38;;;;;;;21.60;9.90;;;7.10;99.90;;;;;;10341567;28;20220;-83
2022/11/05 19:46:03;;;;;;;25.07;11.83;;;7.00;99.90;;;;;;10358599;28;20491;-87
2022/11/05 19:51:27;;;;;;;28.53;13.63;;;6.90;99.90;;;;;;10345171;28;20275;-86
2022/11/05 19:56:50;;;;;;;27.57;12.83;;;6.90;99.90;;;;;;10331275;28;20198;-86
2022/11/05 20:02:11;;;;;;;23.30;11.97;;;6.80;99.90;;;;;;10348683;28;20237;-87
2022/11/05 20:07:36;;;;;;;21.63;11.70;;;6.80;99.90;;;;;;10302230;28;20200;-85
2022/11/05 20:12:57;;;;;;;20.33;10.60;;;6.70;99.90;;;;;;10319795;28;20518;-84
2022/11/05 20:18:19;;;;;;;36.40;16.00;;;6.60;99.90;;;;;;10316311;28;20204;-86
2022/11/05 20:23:40;;;;;;;42.63;20.30;;;6.50;99.90;;;;;;10329621;28;20202;-85
2022/11/05 20:29:01;;;;;;;44.10;20.03;;;6.40;99.90;;;;;;10328665;28;20205;-87
2022/11/05 20:34:23;;;;;;;50.00;25.30;;;6.30;99.90;;;;;;10355126;28;20236;-88
2022/11/05 20:39:45;;;;;;;42.20;23.47;;;6.20;99.90;;;;;;10342390;28;20239;-88
2022/11/05 20:45:07;;;;;;;39.33;21.13;;;;;;;;;;10369986;28;20192;-85
2022/11/05 20:50:29;;;;;;;34.30;19.17;;;;;;;;;;10324532;28;20205;-87
2022/11/05 20:55:49;;;;;;;29.60;14.80;;;6.10;99.90;;;;;;10341806;28;20208;-88
2022/11/05 21:01:12;;;;;;;29.73;15.93;;;5.80;99.90;;;;;;10327229;28;20211;-84
2022/11/05 21:06:34;;;;;;;30.47;15.23;;;5.70;99.90;;;;;;10301425;28;20204;-86
2022/11/05 21:12:10;;;;;;;37.13;20.00;;;5.70;99.90;;;;;;10347820;28;20406;-88
2022/11/05 21:17:32;;;;;;;34.83;19.60;;;5.60;99.90;;;;;;10341790;28;20193;-87
2022/11/05 21:22:53;;;;;;;38.73;21.77;;;5.60;99.90;;;;;;10328282;28;20438;-86
2022/11/05 21:28:15;;;;;;;36.67;21.90;;;5.50;99.90;;;;;;10341287;28;20439;-87
2022/11/05 21:33:37;;;;;;;39.93;25.00;;;5.40;99.90;;;;;;10335845;28;20221;-84
2022/11/05 21:38:58;;;;;;;47.10;24.83;;;5.40;99.90;;;;;;10310354;28;20190;-85
2022/11/05 21:44:19;;;;;;;47.97;26.50;;;5.30;99.90;;;;;;10340953;28;20284;-88
2022/11/05 21:49:40;;;;;;;52.30;27.73;;;5.30;99.90;;;;;;10347988;28;20252;-86
2022/11/05 22:01:01;;;;;;;50.87;27.80;;;5.10;99.90;;;;;;10303223;28;20208;-87
2022/11/05 22:06:22;;;;;;;40.37;22.90;;;5.10;99.90;;;;;;10210463;29;20277;-85
2022/11/05 22:11:44;;;;;;;46.00;26.07;;;5.00;99.90;;;;;;10244279;28;20548;-88
2022/11/05 22:17:06;;;;;;;48.33;27.07;;;5.00;99.90;;;;;;10302320;28;20208;-87
2022/11/05 22:22:27;;;;;;;51.33;28.60;;;4.90;99.90;;;;;;10300795;28;20215;-86
2022/11/05 22:27:48;;;;;;;42.20;25.47;;;4.90;99.90;;;;;;10264727;28;20278;-86
2022/11/05 22:33:09;;;;;;;44.07;25.37;;;4.90;99.90;;;;;;10346514;28;20296;-86
2022/11/05 22:38:31;;;;;;;52.37;29.43;;;4.90;99.90;;;;;;10324091;28;20475;-87
2022/11/05 22:43:52;;;;;;;54.53;30.50;;;4.90;99.90;;;;;;10346956;28;20222;-85
2022/11/05 22:49:14;;;;;;;50.03;25.67;;;4.90;99.90;;;;;;10347103;28;20251;-86
2022/11/05 22:54:35;;;;;;;38.53;20.60;;;4.90;99.90;;;;;;10361082;28;20456;-88
2022/11/05 22:59:59;;;;;;;37.37;20.20;;;4.90;99.90;;;;;;10346168;28;20200;-86
2022/11/05 23:05:20;;;;;;;31.00;17.27;;;4.90;99.90;;;;;;10357962;28;20204;-84
2022/11/05 23:27:43;;;;;;;28.37;14.13;;;5.00;99.90;;;;;;10323072;28;20204;-88
2022/11/05 23:33:04;;;;;;;24.77;14.17;;;4.90;99.90;;;;;;10342393;28;20420;-86
2022/11/05 23:38:34;;;;;;;26.77;11.17;;;4.90;99.90;;;;;;10307222;28;20208;-87
2022/11/05 23:49:36;;;;;;;16.90;7.70;;;5.00;99.90;;;;;;10366182;28;20200;-82
2022/11/05 23:54:57;;;;;;;18.07;6.23;;;5.10;99.90;;;;;;10371592;28;20228;-88
